createdAt,value
2017-08-23T00:01:07.730Z,13.60
2017-08-23T00:03:35.185Z,13.50
2017-08-23T00:06:02.675Z,13.50
2017-08-23T00:08:30.133Z,13.50
2017-08-23T00:10:57.597Z,13.50
2017-08-23T00:13:25.050Z,13.40
2017-08-23T00:15:52.510Z,13.40
2017-08-23T00:18:19.967Z,13.40
2017-08-23T00:20:47.428Z,13.30
2017-08-23T00:23:14.887Z,13.20
2017-08-23T00:25:42.338Z,13.20
2017-08-23T00:28:09.795Z,13.10
2017-08-23T00:30:37.256Z,13.10
2017-08-23T00:33:04.714Z,13.10
2017-08-23T00:35:32.172Z,13.00
2017-08-23T00:37:59.639Z,13.00
2017-08-23T00:40:27.079Z,12.90
2017-08-23T00:42:54.551Z,12.90
2017-08-23T00:45:22.021Z,13.00
2017-08-23T00:47:49.477Z,13.00
2017-08-23T00:50:16.934Z,12.90
2017-08-23T00:52:44.402Z,12.80
2017-08-23T00:55:11.871Z,12.80
2017-08-23T00:57:39.327Z,12.70
2017-08-23T01:00:06.798Z,12.70
2017-08-23T01:02:34.266Z,12.70
2017-08-23T01:05:01.724Z,12.60
2017-08-23T01:07:29.193Z,12.60
2017-08-23T01:09:56.663Z,12.60
2017-08-23T01:12:24.123Z,12.60
2017-08-23T01:14:51.600Z,12.60
2017-08-23T01:17:19.049Z,12.60
2017-08-23T01:19:46.514Z,12.50
2017-08-23T01:24:47.877Z,12.40
2017-08-23T01:27:15.345Z,12.30
2017-08-23T01:29:42.803Z,12.30
2017-08-23T01:32:10.274Z,12.20
2017-08-23T01:34:37.730Z,12.20
2017-08-23T01:37:05.192Z,12.10
2017-08-23T01:39:32.646Z,12.10
2017-08-23T01:42:00.123Z,12.10
2017-08-23T01:44:27.590Z,12.10
2017-08-23T01:46:55.048Z,12.10
2017-08-23T01:49:22.503Z,12.00
2017-08-23T01:51:49.977Z,12.00
2017-08-23T01:54:17.426Z,12.00
2017-08-23T01:56:44.911Z,12.00
2017-08-23T01:59:12.365Z,11.90
2017-08-23T02:01:39.849Z,11.90
2017-08-23T02:04:07.308Z,11.90
2017-08-23T02:06:34.769Z,11.70
2017-08-23T02:09:02.232Z,11.70
2017-08-23T02:11:29.686Z,11.60
2017-08-23T02:13:57.156Z,11.60
2017-08-23T02:16:24.620Z,11.70
2017-08-23T02:18:52.088Z,11.80
2017-08-23T02:21:19.536Z,11.80
2017-08-23T02:23:47.005Z,11.80
2017-08-23T02:26:14.459Z,11.80
2017-08-23T02:28:41.929Z,11.80
2017-08-23T02:31:09.392Z,11.80
2017-08-23T02:33:36.884Z,11.80
2017-08-23T02:36:04.332Z,11.70
2017-08-23T02:38:31.793Z,11.70
2017-08-23T02:40:59.253Z,11.70
2017-08-23T02:43:26.711Z,11.70
2017-08-23T02:45:54.165Z,11.70
2017-08-23T02:48:21.642Z,11.60
2017-08-23T02:50:49.095Z,11.60
2017-08-23T02:53:16.557Z,11.50
2017-08-23T02:55:44.015Z,11.50
2017-08-23T02:58:11.465Z,11.50
2017-08-23T03:00:38.936Z,11.50
2017-08-23T03:03:06.401Z,11.40
2017-08-23T03:05:33.864Z,11.50
2017-08-23T03:08:01.317Z,11.50
2017-08-23T03:10:28.780Z,11.50
2017-08-23T03:12:56.240Z,11.50
2017-08-23T03:15:23.716Z,11.50
2017-08-23T03:17:51.176Z,11.40
2017-08-23T03:20:18.656Z,11.40
2017-08-23T03:22:46.125Z,11.30
2017-08-23T03:25:13.584Z,11.30
2017-08-23T03:27:41.051Z,11.30
2017-08-23T03:30:08.516Z,11.30
2017-08-23T03:32:35.961Z,11.20
2017-08-23T03:35:03.413Z,11.20
2017-08-23T03:37:30.875Z,11.20
2017-08-23T03:39:58.338Z,11.20
2017-08-23T03:42:25.795Z,11.20
2017-08-23T03:44:53.253Z,11.20
2017-08-23T03:47:20.719Z,11.20
2017-08-23T03:49:48.182Z,11.20
2017-08-23T03:52:15.652Z,11.20
2017-08-23T03:54:43.100Z,11.20
2017-08-23T03:57:10.582Z,11.20
2017-08-23T03:59:38.051Z,11.30
2017-08-23T04:02:05.513Z,11.20
2017-08-23T04:04:32.981Z,11.20
2017-08-23T04:07:00.422Z,11.20
2017-08-23T04:09:27.887Z,11.10
2017-08-23T04:11:55.341Z,11.10
2017-08-23T04:14:22.793Z,11.10
2017-08-23T04:16:50.258Z,11.00
2017-08-23T04:19:17.725Z,11.00
2017-08-23T04:21:45.183Z,11.00
2017-08-23T04:24:12.650Z,11.10
2017-08-23T04:26:40.102Z,11.10
2017-08-23T04:29:07.567Z,11.10
2017-08-23T04:31:35.025Z,11.10
2017-08-23T04:34:02.503Z,11.10
2017-08-23T04:36:29.960Z,11.20
2017-08-23T04:38:57.419Z,11.20
2017-08-23T04:41:24.882Z,11.20
2017-08-23T04:43:52.350Z,11.30
2017-08-23T04:46:19.810Z,11.30
2017-08-23T04:48:47.273Z,11.30
2017-08-23T04:51:14.740Z,11.30
2017-08-23T04:53:42.199Z,11.30
2017-08-23T04:56:09.656Z,11.30
2017-08-23T04:58:37.128Z,11.30
2017-08-23T05:01:04.592Z,11.30
2017-08-23T05:03:32.054Z,11.40
2017-08-23T05:05:59.518Z,11.40
2017-08-23T05:08:26.984Z,11.40
2017-08-23T05:10:54.436Z,11.40
2017-08-23T05:13:21.901Z,11.40
2017-08-23T05:15:49.371Z,11.40
2017-08-23T05:18:16.844Z,11.40
2017-08-23T05:20:44.302Z,11.40
2017-08-23T05:23:11.770Z,11.40
2017-08-23T05:25:39.235Z,11.40
2017-08-23T05:28:06.701Z,11.40
2017-08-23T05:30:34.192Z,11.50
2017-08-23T05:33:01.755Z,11.50
2017-08-23T05:35:29.256Z,11.60
2017-08-23T05:37:56.745Z,11.60
2017-08-23T05:40:24.208Z,11.60
2017-08-23T05:42:51.720Z,11.70
2017-08-23T05:45:19.185Z,11.70
2017-08-23T05:47:46.670Z,11.70
2017-08-23T05:50:14.143Z,11.70
2017-08-23T05:52:41.609Z,11.80
2017-08-23T05:55:09.078Z,11.80
2017-08-23T05:57:36.529Z,11.90
2017-08-23T06:00:04.011Z,11.90
2017-08-23T06:02:31.481Z,12.00
2017-08-23T06:04:58.930Z,12.00
2017-08-23T06:07:26.397Z,12.10
2017-08-23T06:09:53.865Z,12.10
2017-08-23T06:12:21.323Z,12.20
2017-08-23T06:14:48.801Z,12.30
2017-08-23T06:17:16.294Z,12.30
2017-08-23T06:19:43.747Z,12.40
2017-08-23T06:22:11.254Z,12.40
2017-08-23T06:24:38.723Z,12.50
2017-08-23T06:27:06.196Z,12.60
2017-08-23T06:29:33.667Z,12.70
2017-08-23T06:32:01.139Z,12.70
2017-08-23T06:34:28.625Z,12.80
2017-08-23T06:36:56.134Z,12.90
2017-08-23T06:39:23.599Z,13.00
2017-08-23T06:41:51.069Z,13.10
2017-08-23T06:44:18.519Z,13.10
2017-08-23T06:46:45.984Z,13.20
2017-08-23T06:49:13.447Z,13.30
2017-08-23T06:51:40.906Z,13.40
2017-08-23T06:54:08.369Z,13.40
2017-08-23T06:56:35.826Z,13.50
2017-08-23T06:59:03.296Z,13.50
2017-08-23T07:01:30.756Z,13.60
2017-08-23T07:03:58.215Z,13.70
2017-08-23T07:06:25.693Z,13.70
2017-08-23T07:08:53.151Z,13.80
2017-08-23T07:11:20.612Z,13.80
2017-08-23T07:13:48.080Z,13.80
2017-08-23T07:16:15.538Z,13.90
2017-08-23T07:18:43.019Z,14.00
2017-08-23T07:21:10.475Z,14.00
2017-08-23T07:23:37.940Z,14.10
2017-08-23T07:26:05.402Z,14.20
2017-08-23T07:28:32.874Z,14.30
2017-08-23T07:31:00.342Z,14.40
2017-08-23T07:33:27.817Z,14.50
2017-08-23T07:35:55.275Z,14.60
2017-08-23T07:38:22.751Z,14.70
2017-08-23T07:40:50.215Z,14.80
2017-08-23T07:43:17.677Z,15.00
2017-08-23T07:45:45.149Z,15.00
2017-08-23T07:48:12.611Z,15.20
2017-08-23T07:50:40.079Z,15.20
2017-08-23T07:53:07.544Z,15.30
2017-08-23T07:55:35.008Z,15.30
2017-08-23T07:58:02.473Z,15.40
2017-08-23T08:00:29.940Z,15.50
2017-08-23T08:02:57.400Z,15.70
2017-08-23T08:05:24.869Z,15.80
2017-08-23T08:07:52.334Z,15.80
2017-08-23T08:10:19.803Z,15.90
2017-08-23T08:12:47.272Z,16.00
2017-08-23T08:15:14.747Z,16.20
2017-08-23T08:17:42.201Z,16.30
2017-08-23T08:20:09.664Z,16.30
2017-08-23T08:22:37.118Z,16.40
2017-08-23T08:25:04.580Z,16.50
2017-08-23T08:27:32.029Z,16.60
2017-08-23T08:29:59.523Z,16.80
2017-08-23T08:32:27.049Z,16.80
2017-08-23T08:34:54.539Z,16.90
2017-08-23T08:37:22.043Z,17.00
2017-08-23T08:39:49.513Z,17.10
2017-08-23T08:42:16.990Z,17.10
2017-08-23T08:44:44.465Z,17.20
2017-08-23T08:47:11.942Z,17.30
2017-08-23T08:49:39.434Z,17.40
2017-08-23T08:52:06.907Z,17.50
2017-08-23T08:54:34.371Z,17.70
2017-08-23T08:57:01.845Z,17.90
2017-08-23T08:59:29.328Z,17.90
2017-08-23T09:01:56.851Z,18.00
2017-08-23T09:04:24.355Z,18.00
2017-08-23T09:06:51.919Z,18.20
2017-08-23T09:09:19.462Z,18.50
2017-08-23T09:11:46.983Z,18.80
2017-08-23T09:14:14.543Z,18.80
2017-08-23T09:16:42.087Z,18.90
2017-08-23T09:19:13.089Z,19.20
2017-08-23T09:21:42.526Z,19.50
2017-08-23T09:24:10.090Z,19.70
2017-08-23T09:26:37.656Z,19.80
2017-08-23T09:29:05.186Z,19.70
2017-08-23T09:31:32.719Z,19.60
2017-08-23T09:34:04.982Z,19.60
2017-08-23T09:36:35.296Z,19.90
2017-08-23T09:41:36.789Z,20.30
2017-08-23T09:44:04.317Z,20.30
2017-08-23T09:46:31.841Z,20.30
2017-08-23T09:49:02.230Z,20.50
2017-08-23T09:51:31.777Z,20.60
2017-08-23T09:53:59.253Z,20.60
2017-08-23T09:56:26.719Z,20.60
2017-08-23T09:58:54.187Z,20.90
2017-08-23T10:01:21.663Z,21.10
2017-08-23T10:03:49.118Z,21.40
2017-08-23T10:06:16.583Z,21.50
2017-08-23T10:08:44.037Z,21.30
2017-08-23T10:11:11.569Z,21.10
2017-08-23T10:13:39.126Z,21.30
2017-08-23T10:16:07.523Z,21.40
2017-08-23T10:18:35.093Z,21.80
2017-08-23T10:21:02.626Z,21.80
2017-08-23T10:23:30.180Z,21.90
2017-08-23T10:25:57.782Z,22.20
2017-08-23T10:28:25.404Z,22.30
2017-08-23T10:30:53.018Z,22.20
2017-08-23T10:35:54.436Z,22.30
2017-08-23T10:38:21.942Z,22.50
2017-08-23T10:40:50.478Z,22.30
2017-08-23T10:43:18.257Z,22.30
2017-08-23T10:45:45.980Z,22.30
2017-08-23T10:48:13.550Z,22.60
2017-08-23T10:50:41.023Z,22.80
2017-08-23T10:53:08.490Z,22.40
2017-08-23T10:55:35.946Z,22.50
2017-08-23T10:58:03.434Z,22.60
2017-08-23T11:00:31.016Z,22.90
2017-08-23T11:02:58.531Z,22.60
2017-08-23T11:05:26.077Z,22.70
2017-08-23T11:07:53.591Z,22.60
2017-08-23T11:24:06.704Z,24.50
2017-08-23T11:26:34.266Z,25.20
2017-08-23T11:29:01.777Z,25.40
2017-08-23T11:31:29.302Z,26.50
2017-08-23T11:33:56.856Z,26.80
2017-08-23T11:36:24.371Z,26.40
2017-08-23T11:38:51.920Z,27.10
2017-08-23T11:41:19.443Z,27.30
2017-08-23T11:43:47.838Z,27.70
2017-08-23T11:46:15.389Z,28.00
2017-08-23T11:48:42.862Z,27.30
2017-08-23T11:51:10.308Z,28.40
2017-08-23T11:53:37.749Z,28.30
2017-08-23T11:56:05.207Z,28.70
2017-08-23T11:58:32.648Z,27.00
2017-08-23T12:01:00.094Z,27.50
2017-08-23T12:03:27.536Z,26.80
2017-08-23T12:05:54.982Z,27.40
2017-08-23T12:08:22.433Z,27.50
2017-08-23T12:10:49.984Z,26.80
2017-08-23T12:13:17.433Z,24.90
2017-08-23T12:15:44.875Z,26.50
2017-08-23T12:18:12.330Z,27.00
2017-08-23T12:20:39.773Z,26.70
2017-08-23T12:23:07.217Z,28.50
2017-08-23T12:25:34.669Z,28.90
2017-08-23T12:28:02.117Z,29.90
2017-08-23T12:30:29.557Z,28.40
2017-08-23T12:32:57.013Z,28.90
2017-08-23T12:35:24.461Z,28.50
2017-08-23T12:37:51.898Z,27.70
2017-08-23T12:40:19.355Z,29.10
2017-08-23T12:42:46.798Z,29.10
2017-08-23T12:45:14.246Z,30.20
2017-08-23T12:47:41.690Z,28.60
2017-08-23T12:50:09.136Z,28.70
2017-08-23T12:52:36.577Z,28.80
2017-08-23T12:55:04.036Z,28.40
2017-08-23T12:57:31.477Z,28.80
2017-08-23T12:59:58.933Z,29.30
2017-08-23T13:02:26.378Z,28.70
2017-08-23T13:04:53.820Z,29.30
2017-08-23T13:07:21.270Z,29.70
2017-08-23T13:09:48.783Z,30.00
2017-08-23T13:12:16.178Z,30.20
2017-08-23T13:14:43.612Z,30.20
2017-08-23T13:17:11.060Z,29.50
2017-08-23T13:19:38.517Z,30.00
2017-08-23T13:22:05.957Z,30.10
2017-08-23T13:24:33.416Z,29.60
2017-08-23T13:27:00.861Z,29.20
2017-08-23T13:29:28.309Z,28.90
2017-08-23T13:31:55.789Z,27.50
2017-08-23T13:34:23.233Z,29.10
2017-08-23T13:36:50.691Z,29.00
2017-08-23T13:39:18.147Z,28.70
2017-08-23T13:41:45.603Z,28.40
2017-08-23T13:44:13.053Z,28.90
2017-08-23T13:46:40.516Z,29.30
2017-08-23T13:49:07.965Z,29.30
2017-08-23T13:51:35.408Z,30.30
2017-08-23T13:54:02.857Z,31.00
2017-08-23T13:56:30.306Z,30.30
2017-08-23T13:58:57.764Z,29.80
2017-08-23T14:01:25.201Z,29.70
2017-08-23T14:03:52.655Z,29.40
2017-08-23T14:06:20.098Z,29.10
2017-08-23T14:08:47.545Z,28.80
2017-08-23T14:11:15.010Z,28.80
2017-08-23T14:13:42.441Z,27.20
2017-08-23T14:16:09.886Z,27.80
2017-08-23T14:18:37.372Z,29.90
2017-08-23T14:21:04.835Z,29.30
2017-08-23T14:23:32.335Z,29.30
2017-08-23T14:25:59.812Z,29.90
2017-08-23T14:28:27.242Z,29.10
2017-08-23T14:30:54.702Z,29.90
2017-08-23T14:33:22.159Z,29.50
2017-08-23T14:35:49.636Z,30.10
2017-08-23T14:38:17.086Z,30.40
2017-08-23T14:40:44.528Z,30.30
2017-08-23T14:43:11.967Z,29.30
2017-08-23T14:45:39.419Z,29.00
2017-08-23T14:48:06.871Z,30.00
2017-08-23T14:50:34.317Z,30.20
2017-08-23T14:53:01.758Z,29.10
2017-08-23T14:55:29.210Z,29.10
2017-08-23T14:57:56.664Z,29.90
2017-08-23T15:00:24.111Z,30.70
2017-08-23T15:02:51.562Z,30.50
2017-08-23T15:05:19.002Z,29.40
2017-08-23T15:07:46.448Z,28.50
2017-08-23T15:10:13.893Z,27.80
2017-08-23T15:12:41.345Z,29.20
2017-08-23T15:15:08.786Z,30.00
2017-08-23T15:17:36.232Z,30.80
2017-08-23T15:20:03.678Z,29.90
2017-08-23T15:22:31.135Z,30.80
2017-08-23T15:24:58.582Z,31.70
2017-08-23T15:27:26.039Z,31.60
2017-08-23T15:29:53.487Z,30.40
2017-08-23T15:32:21.043Z,27.40
2017-08-23T15:34:48.473Z,29.10
2017-08-23T15:37:15.930Z,29.50
2017-08-23T15:39:43.378Z,28.30
2017-08-23T15:42:10.839Z,28.20
2017-08-23T15:44:38.287Z,28.60
2017-08-23T15:47:05.731Z,29.30
2017-08-23T15:49:33.180Z,29.90
2017-08-23T15:52:00.630Z,29.80
2017-08-23T15:54:28.082Z,31.00
2017-08-23T15:56:55.532Z,30.10
2017-08-23T15:59:22.973Z,30.40
2017-08-23T16:01:50.412Z,31.40
2017-08-23T16:04:17.854Z,31.10
2017-08-23T16:06:45.289Z,29.20
2017-08-23T16:09:12.736Z,29.40
2017-08-23T16:11:40.191Z,29.70
2017-08-23T16:14:07.642Z,30.30
2017-08-23T16:16:35.082Z,29.30
2017-08-23T16:19:02.534Z,30.10
2017-08-23T16:21:29.977Z,29.90
2017-08-23T16:23:57.428Z,29.50
2017-08-23T16:26:24.886Z,28.90
2017-08-23T16:28:52.326Z,28.70
2017-08-23T16:31:19.780Z,28.60
2017-08-23T16:33:47.217Z,29.10
2017-08-23T16:36:14.670Z,28.60
2017-08-23T16:38:42.110Z,29.00
2017-08-23T16:41:11.094Z,29.50
2017-08-23T16:43:38.575Z,30.00
2017-08-23T16:46:06.026Z,30.70
2017-08-23T16:48:33.476Z,29.20
2017-08-23T16:51:00.934Z,29.80
2017-08-23T16:53:28.378Z,29.10
2017-08-23T16:55:55.866Z,28.60
2017-08-23T16:58:23.301Z,29.10
2017-08-23T17:00:50.750Z,28.70
2017-08-23T17:03:18.184Z,28.10
2017-08-23T17:05:45.630Z,27.40
2017-08-23T17:08:13.078Z,26.60
2017-08-23T17:13:14.443Z,25.80
2017-08-23T17:15:41.886Z,25.40
2017-08-23T17:18:09.339Z,25.10
2017-08-23T17:20:36.785Z,24.90
2017-08-23T17:23:04.247Z,24.60
2017-08-23T17:25:31.687Z,24.50
2017-08-23T17:27:59.136Z,24.20
2017-08-23T17:30:26.591Z,24.00
2017-08-23T17:32:54.043Z,23.60
2017-08-23T17:35:21.480Z,23.50
2017-08-23T17:37:48.974Z,23.40
2017-08-23T17:40:16.414Z,23.30
2017-08-23T17:42:43.853Z,23.20
2017-08-23T17:45:11.302Z,23.10
2017-08-23T17:47:38.742Z,23.00
2017-08-23T17:50:06.190Z,22.90
2017-08-23T17:52:33.625Z,22.70
2017-08-23T17:55:01.077Z,22.60
2017-08-23T17:57:28.522Z,22.40
2017-08-23T17:59:56.004Z,22.30
2017-08-23T18:02:23.448Z,22.20
2017-08-23T18:04:50.903Z,22.10
2017-08-23T18:07:18.341Z,22.00
2017-08-23T18:09:45.815Z,21.90
2017-08-23T18:12:13.282Z,21.80
2017-08-23T18:14:40.734Z,21.80
2017-08-23T18:17:08.179Z,21.60
2017-08-23T18:19:35.626Z,21.50
2017-08-23T18:22:03.069Z,21.40
2017-08-23T18:24:30.513Z,21.30
2017-08-23T18:26:57.976Z,21.30
2017-08-23T18:29:25.413Z,21.30
2017-08-23T18:31:52.864Z,21.30
2017-08-23T18:34:20.301Z,21.20
2017-08-23T18:36:47.750Z,21.00
2017-08-23T18:39:15.197Z,21.00
2017-08-23T18:41:42.654Z,21.10
2017-08-23T18:44:10.098Z,21.10
2017-08-23T18:46:37.550Z,21.00
2017-08-23T18:49:05.042Z,21.00
2017-08-23T18:51:32.492Z,20.90
2017-08-23T18:53:59.991Z,20.80
2017-08-23T18:56:27.450Z,20.70
2017-08-23T18:58:54.901Z,20.60
2017-08-23T19:01:22.346Z,20.60
2017-08-23T19:03:49.795Z,20.50
2017-08-23T19:06:17.233Z,20.40
2017-08-23T19:08:44.742Z,20.30
2017-08-23T19:11:12.169Z,20.10
2017-08-23T19:13:39.630Z,20.10
2017-08-23T19:16:07.071Z,20.00
2017-08-23T19:18:34.519Z,20.10
2017-08-23T19:21:01.965Z,19.90
2017-08-23T19:23:29.458Z,19.80
2017-08-23T19:25:56.935Z,19.70
2017-08-23T19:28:24.486Z,19.60
2017-08-23T19:30:51.934Z,19.60
2017-08-23T19:33:19.404Z,19.70
2017-08-23T19:35:46.890Z,19.70
2017-08-23T19:38:14.339Z,19.60
2017-08-23T19:40:41.790Z,19.60
2017-08-23T19:43:09.331Z,19.60
2017-08-23T19:45:36.789Z,19.80
2017-08-23T19:48:04.235Z,19.80
2017-08-23T19:50:31.694Z,19.70
2017-08-23T19:52:59.170Z,19.60
2017-08-23T19:55:26.625Z,19.80
2017-08-23T19:57:54.171Z,19.70
2017-08-23T20:00:21.727Z,19.60
2017-08-23T20:02:49.181Z,19.50
2017-08-23T20:05:16.639Z,19.30
2017-08-23T20:07:44.200Z,19.20
2017-08-23T20:10:11.645Z,19.20
2017-08-23T20:12:39.089Z,19.20
2017-08-23T20:15:06.575Z,19.30
2017-08-23T20:17:34.138Z,19.20
2017-08-23T20:20:01.591Z,19.20
2017-08-23T20:22:29.150Z,19.30
2017-08-23T20:24:56.593Z,19.20
2017-08-23T20:27:24.066Z,19.10
2017-08-23T20:29:51.505Z,19.10
2017-08-23T20:32:18.981Z,19.00
2017-08-23T20:34:46.421Z,19.00
2017-08-23T20:37:13.873Z,18.90
2017-08-23T20:39:41.312Z,18.80
2017-08-23T20:42:08.793Z,18.90
2017-08-23T20:44:36.249Z,19.10
2017-08-23T20:47:04.469Z,19.20
2017-08-23T20:49:31.913Z,19.20
2017-08-23T20:51:59.367Z,19.20
2017-08-23T20:54:26.892Z,19.10
2017-08-23T20:56:54.360Z,19.10
2017-08-23T20:59:21.808Z,19.00
2017-08-23T21:01:49.265Z,19.00
2017-08-23T21:04:16.723Z,19.00
2017-08-23T21:06:44.150Z,18.90
2017-08-23T21:09:11.602Z,18.80
2017-08-23T21:11:39.037Z,18.80
2017-08-23T21:14:06.481Z,18.70
2017-08-23T21:16:33.925Z,18.70
2017-08-23T21:19:01.376Z,18.70
2017-08-23T21:21:28.812Z,18.70
2017-08-23T21:23:56.265Z,18.60
2017-08-23T21:26:23.734Z,18.50
2017-08-23T21:28:51.181Z,18.50
2017-08-23T21:31:18.628Z,18.40
2017-08-23T21:33:46.106Z,18.40
2017-08-23T21:36:13.549Z,18.40
2017-08-23T21:38:40.984Z,18.40
2017-08-23T21:41:08.458Z,18.30
2017-08-23T21:43:35.897Z,18.30
2017-08-23T21:46:03.353Z,18.20
2017-08-23T21:48:30.792Z,18.20
2017-08-23T21:50:58.303Z,18.30
2017-08-23T21:53:25.751Z,18.20
2017-08-23T21:55:53.209Z,18.20
2017-08-23T21:58:21.786Z,18.10
2017-08-23T22:00:49.247Z,18.10
2017-08-23T22:03:16.692Z,18.10
2017-08-23T22:05:44.172Z,18.00
2017-08-23T22:08:11.615Z,18.00
2017-08-23T22:10:39.057Z,18.10
2017-08-23T22:13:06.506Z,18.10
2017-08-23T22:15:33.990Z,18.20
2017-08-23T22:18:01.434Z,18.10
2017-08-23T22:20:28.864Z,18.10
2017-08-23T22:22:56.377Z,18.00
2017-08-23T22:25:23.803Z,17.90
2017-08-23T22:27:51.249Z,17.90
2017-08-23T22:30:18.694Z,17.80
2017-08-23T22:32:46.133Z,17.70
2017-08-23T22:35:13.646Z,17.80
2017-08-23T22:37:41.093Z,17.70
2017-08-23T22:40:08.557Z,17.70
2017-08-23T22:42:36.004Z,17.70
2017-08-23T22:45:03.481Z,17.60
2017-08-23T22:47:30.937Z,17.50
2017-08-23T22:49:58.378Z,17.50
2017-08-23T22:52:25.822Z,17.50
2017-08-23T22:54:53.272Z,17.50
2017-08-23T22:57:20.758Z,17.60
2017-08-23T22:59:48.317Z,17.50
2017-08-23T23:02:15.769Z,17.50
2017-08-23T23:04:43.229Z,17.40
2017-08-23T23:07:10.677Z,17.30
2017-08-23T23:09:38.145Z,17.30
2017-08-23T23:12:05.590Z,17.20
2017-08-23T23:14:33.036Z,17.10
2017-08-23T23:17:00.489Z,17.10
2017-08-23T23:19:27.947Z,17.00
2017-08-23T23:21:55.392Z,16.90
2017-08-23T23:24:22.847Z,16.80
2017-08-23T23:26:50.289Z,16.90
2017-08-23T23:29:17.739Z,16.80
2017-08-23T23:31:45.249Z,16.70
2017-08-23T23:34:12.805Z,16.80
2017-08-23T23:36:40.259Z,16.70
2017-08-23T23:39:07.718Z,16.60
2017-08-23T23:41:35.277Z,16.60
2017-08-23T23:44:02.850Z,16.60
2017-08-23T23:46:30.305Z,16.60
2017-08-23T23:48:57.761Z,16.50
2017-08-23T23:51:25.218Z,16.50
2017-08-23T23:53:52.665Z,16.50
2017-08-23T23:56:20.121Z,16.40
2017-08-23T23:58:47.582Z,16.50
